Time;durP1;ratioP1;P1;durP2;ratioP2;P2;SDS_P1;SDS_P2;PMS_P1;PMS_P2;Temp;Humidity;BMP_temperature;BMP_pressure;BME280_temperature;BME280_humidity;BME280_pressure;Samples;Min_cycle;Max_cycle;Signal;HPM_P1;HPM_P2
2023/07/24 00:25:20;;;;;;;9.88;6.97;;;;;;;20.78;52.20;96037.78;523468;26;20464;-83
2023/07/24 01:19:06;;;;;;;;;;;;;;;20.13;56.94;96037.97;4033046;23;20326;-80
2023/07/24 01:34:27;;;;;;;10.85;6.60;;;;;;;20.04;59.40;96020.19;5686605;23;20054;-78
2023/07/24 01:43:14;;;;;;;;;;;;;;;19.92;58.32;96004.50;4981744;28;20038;-80
2023/07/24 01:54:36;;;;;;;9.55;6.47;;;;;;;19.48;58.62;95983.50;5473286;23;20115;-78
2023/07/24 02:02:57;;;;;;;9.55;6.80;;;;;;;19.31;60.08;96007.47;5185753;23;20115;-79
2023/07/24 03:55:01;;;;;;;8.52;6.20;;;;;;;19.00;55.68;95901.47;5302972;23;20031;-79
2023/07/24 03:57:49;;;;;;;10.23;6.22;;;;;;;18.98;55.89;95918.59;5194160;23;21847;-81
2023/07/24 04:00:48;;;;;;;10.20;6.03;;;;;;;18.96;55.77;95918.06;4978626;28;20212;-81
2023/07/24 04:03:40;;;;;;;7.93;6.30;;;;;;;18.91;55.68;95916.97;4979501;28;20047;-79
2023/07/24 04:06:39;;;;;;;8.77;5.68;;;;;;;18.87;55.69;95929.09;4979432;28;20024;-78
2023/07/24 04:18:04;;;;;;;9.80;6.00;;;;;;;18.71;56.23;95927.31;5039887;28;20042;-79
2023/07/24 04:20:32;;;;;;;9.60;6.00;;;;;;;18.67;56.34;95927.03;5040996;28;20122;-79
2023/07/24 04:23:00;;;;;;;10.48;5.82;;;;;;;18.65;56.60;95909.81;5041061;28;20040;-79
2023/07/24 04:25:29;;;;;;;8.07;5.53;;;;;;;18.60;56.63;95913.22;5040530;28;20064;-79
2023/07/24 04:27:57;;;;;;;8.10;5.90;;;;;;;18.58;56.57;95901.31;5021255;28;20038;-79
2023/07/24 04:30:25;;;;;;;13.23;7.25;;;;;;;18.61;56.68;95906.09;5021018;28;20034;-79
2023/07/24 04:32:53;;;;;;;9.95;6.38;;;;;;;18.64;56.64;95900.31;5021196;28;20057;-79
2023/07/24 04:35:21;;;;;;;9.82;5.93;;;;;;;18.68;56.60;95890.84;5021124;28;20037;-79
2023/07/24 04:37:51;;;;;;;10.10;6.10;;;;;;;18.73;56.46;95889.03;5021222;28;20070;-79
2023/07/24 04:40:19;;;;;;;10.40;6.50;;;;;;;18.79;56.13;95876.69;5020857;28;20101;-80
2023/07/24 04:42:53;;;;;;;8.95;6.05;;;;;;;18.82;56.23;95865.63;5021245;28;20073;-79
2023/07/24 04:48:08;;;;;;;8.20;6.25;;;;;;;18.94;55.73;95863.63;5020365;23;20055;-77
2023/07/24 04:50:36;;;;;;;10.32;6.75;;;;;;;19.01;55.58;95857.31;4960846;29;20079;-76
2023/07/24 04:53:03;;;;;;;13.73;6.60;;;;;;;19.07;55.34;95843.09;4962138;29;20050;-77
2023/07/24 04:55:31;;;;;;;10.48;6.38;;;;;;;19.14;55.07;95836.53;4962661;28;20090;-77
2023/07/24 04:58:00;;;;;;;9.15;6.18;;;;;;;19.20;54.66;95840.00;4962705;29;20075;-77
2023/07/24 05:00:27;;;;;;;8.93;5.93;;;;;;;19.25;54.52;95840.03;4970807;29;20055;-76
2023/07/24 05:02:55;;;;;;;8.77;5.80;;;;;;;19.30;53.89;95826.03;4970507;29;20122;-75
2023/07/24 05:05:23;;;;;;;10.02;7.07;;;;;;;19.32;53.79;95827.38;4979247;28;20058;-79
2023/07/24 05:07:51;;;;;;;10.95;7.10;;;;;;;19.35;53.63;95829.53;4981675;28;20039;-78
2023/07/24 05:10:19;;;;;;;9.55;6.40;;;;;;;19.40;53.56;95828.75;4981740;28;20095;-79
2023/07/24 05:12:49;;;;;;;9.50;6.47;;;;;;;19.46;53.59;95826.91;4981709;28;20051;-79
2023/07/24 05:15:23;;;;;;;8.13;5.82;;;;;;;19.49;53.67;95842.28;4981578;28;20055;-79
2023/07/24 05:17:52;;;;;;;9.38;6.25;;;;;;;19.50;53.77;95833.28;4981895;28;20039;-79
2023/07/24 05:20:22;;;;;;;8.50;5.90;;;;;;;19.51;53.64;95826.97;4981771;28;20067;-79
2023/07/24 05:22:51;;;;;;;11.13;6.75;;;;;;;19.53;53.82;95835.44;4981348;28;20031;-80
2023/07/24 05:25:20;;;;;;;9.25;6.65;;;;;;;19.57;54.10;95836.53;4981845;28;20062;-79
2023/07/24 05:27:49;;;;;;;11.02;6.60;;;;;;;19.63;53.97;95843.41;4981659;28;20055;-79
2023/07/24 05:30:18;;;;;;;9.05;6.57;;;;;;;19.66;54.36;95848.19;4981605;28;20035;-79
2023/07/24 05:32:49;;;;;;;9.30;5.82;;;;;;;19.68;54.91;95851.38;4981452;28;20031;-78
2023/07/24 05:35:20;;;;;;;12.65;7.20;;;;;;;19.67;55.00;95847.13;4981599;28;20040;-78
2023/07/24 05:37:49;;;;;;;12.13;7.10;;;;;;;19.67;55.30;95843.69;4981467;28;20032;-79
2023/07/24 05:40:18;;;;;;;11.13;7.72;;;;;;;19.67;55.51;95839.19;4980868;28;20047;-79
2023/07/24 05:42:48;;;;;;;11.98;7.43;;;;;;;19.68;55.83;95830.22;4981583;28;20031;-79
2023/07/24 05:45:18;;;;;;;11.45;8.13;;;;;;;19.67;55.83;95836.53;4981195;28;20035;-79
2023/07/24 05:47:49;;;;;;;9.35;7.20;;;;;;;19.66;56.39;95832.31;4981152;28;20055;-79
2023/07/24 05:50:18;;;;;;;15.23;8.45;;;;;;;19.68;56.60;95846.09;4981310;28;20032;-79
2023/07/24 05:52:49;;;;;;;12.00;7.00;;;;;;;19.72;56.87;95841.91;4981264;28;20040;-79
2023/07/24 05:55:18;;;;;;;12.00;7.68;;;;;;;19.74;57.19;95833.69;4981163;28;20046;-79
2023/07/24 05:57:46;;;;;;;13.18;8.52;;;;;;;19.80;57.44;95839.81;4980873;28;20049;-79
2023/07/24 06:00:16;;;;;;;12.20;7.13;;;;;;;19.86;57.66;95841.44;4981071;28;20027;-79
2023/07/24 06:02:44;;;;;;;9.65;6.60;;;;;;;19.92;57.95;95846.47;4964352;28;20031;-79
2023/07/24 06:05:16;;;;;;;11.65;6.78;;;;;;;20.00;58.13;95831.16;4980992;28;20039;-78
2023/07/24 06:07:44;;;;;;;9.55;7.25;;;;;;;20.09;57.76;95838.31;4980718;28;20078;-80
2023/07/24 06:10:14;;;;;;;12.00;7.78;;;;;;;20.18;58.00;95849.19;4980836;28;20031;-79
2023/07/24 06:12:43;;;;;;;12.65;8.15;;;;;;;20.29;57.89;95852.66;4980831;28;20090;-79
2023/07/24 06:15:11;;;;;;;11.93;8.02;;;;;;;20.41;57.95;95860.38;4980699;28;20035;-79
2023/07/24 06:17:39;;;;;;;12.50;7.85;;;;;;;20.51;57.67;95863.84;4980669;28;20338;-78
2023/07/24 06:20:09;;;;;;;11.88;8.10;;;;;;;20.63;57.46;95865.47;4980653;28;20067;-79
2023/07/24 06:22:39;;;;;;;9.85;7.47;;;;;;;20.73;57.04;95876.09;4980787;28;20031;-79
2023/07/24 06:25:08;;;;;;;12.70;8.00;;;;;;;20.83;56.83;95875.28;4980570;28;20035;-79
2023/07/24 06:27:36;;;;;;;11.65;8.23;;;;;;;20.92;57.15;95881.66;4980224;28;20070;-79
2023/07/24 06:30:05;;;;;;;12.63;8.40;;;;;;;20.99;56.82;95872.38;4980478;28;20062;-78
2023/07/24 06:32:43;;;;;;;11.32;8.00;;;;;;;21.09;56.68;95873.44;4980489;28;20039;-79
2023/07/24 06:35:11;;;;;;;11.95;8.07;;;;;;;21.18;56.76;95882.44;4979604;28;20039;-79
2023/07/24 06:37:41;;;;;;;12.00;8.93;;;;;;;21.26;56.71;95879.25;4980390;28;20035;-79
2023/07/24 06:40:10;;;;;;;12.40;7.97;;;;;;;21.30;56.69;95882.19;4980154;28;20031;-79
2023/07/24 06:42:39;;;;;;;12.70;7.70;;;;;;;21.33;56.65;95879.78;4980442;28;20067;-79
2023/07/24 06:45:08;;;;;;;13.82;8.20;;;;;;;21.40;56.78;95880.28;4980354;28;20046;-79
2023/07/24 06:47:37;;;;;;;16.70;8.98;;;;;;;21.48;56.83;95875.53;4979700;28;20034;-78
2023/07/24 06:50:07;;;;;;;9.80;7.03;;;;;;;21.53;56.91;95863.03;4980146;28;20042;-78
2023/07/24 06:52:36;;;;;;;12.93;8.60;;;;;;;21.59;56.64;95866.50;4980333;28;20219;-78
2023/07/24 06:55:07;;;;;;;11.40;8.10;;;;;;;21.66;56.53;95853.72;4980046;28;20043;-79
2023/07/24 06:57:36;;;;;;;15.23;8.13;;;;;;;21.70;55.99;95854.00;4980208;28;20047;-79
2023/07/24 07:00:05;;;;;;;14.43;7.70;;;;;;;21.73;55.79;95848.13;4980106;28;20102;-79
2023/07/24 07:02:34;;;;;;;11.95;6.60;;;;;;;21.78;55.48;95845.47;4979933;28;20035;-78
2023/07/24 07:05:05;;;;;;;12.23;7.25;;;;;;;21.83;55.66;95849.97;4980168;28;20046;-78
2023/07/24 07:07:33;;;;;;;12.73;7.28;;;;;;;21.86;55.57;95849.41;4979978;28;20039;-78
2023/07/24 07:10:02;;;;;;;16.23;11.00;;;;;;;21.89;55.35;95844.38;4980028;28;20071;-79
2023/07/24 07:12:31;;;;;;;11.95;8.35;;;;;;;21.95;55.22;95851.25;4979916;28;20035;-79
2023/07/24 07:14:59;;;;;;;9.50;6.85;;;;;;;21.99;55.55;95848.81;4979788;28;20039;-79
2023/07/24 07:17:28;;;;;;;12.48;6.88;;;;;;;22.00;55.54;95835.28;4963430;28;20031;-78
2023/07/24 07:19:57;;;;;;;10.02;7.05;;;;;;;22.05;55.31;95852.25;4979965;28;20038;-79
2023/07/24 07:22:27;;;;;;;9.75;7.25;;;;;;;22.07;55.63;95852.78;4979872;28;20035;-78
2023/07/24 07:24:56;;;;;;;9.98;7.05;;;;;;;22.09;55.68;95859.41;4979960;28;20036;-79
2023/07/24 07:27:24;;;;;;;11.30;7.78;;;;;;;22.10;55.55;95855.66;4979725;28;20036;-79
2023/07/24 07:29:53;;;;;;;10.98;7.72;;;;;;;22.13;55.82;95859.66;4979650;28;20039;-78
2023/07/24 07:32:21;;;;;;;13.90;7.93;;;;;;;22.15;55.84;95878.75;4979738;28;20027;-79
2023/07/24 07:34:50;;;;;;;13.30;8.90;;;;;;;22.18;56.03;95880.88;4979653;28;20043;-78
2023/07/24 07:37:18;;;;;;;10.80;7.20;;;;;;;22.24;56.36;95886.97;4963467;28;20059;-78
2023/07/24 07:39:46;;;;;;;10.70;7.60;;;;;;;22.28;55.81;95880.06;4979708;28;20027;-78
2023/07/24 07:42:14;;;;;;;10.05;6.40;;;;;;;22.30;56.10;95876.09;4979635;28;20035;-78
2023/07/24 07:44:46;;;;;;;11.40;6.57;;;;;;;22.33;56.21;95867.56;4979718;28;20035;-79
2023/07/24 07:47:18;;;;;;;10.80;6.90;;;;;;;22.35;56.26;95872.59;4981691;28;20039;-79
2023/07/24 07:49:46;;;;;;;12.40;8.07;;;;;;;22.36;56.18;95868.84;4983415;28;20083;-78
2023/07/24 07:52:17;;;;;;;10.90;7.53;;;;;;;22.39;56.60;95869.13;4983295;28;20061;-78
2023/07/24 07:54:47;;;;;;;14.27;7.15;;;;;;;22.43;56.60;95861.38;4983458;28;20043;-79
2023/07/24 07:57:16;;;;;;;9.63;6.63;;;;;;;22.46;56.89;95868.03;4983306;28;20038;-80
2023/07/24 07:59:46;;;;;;;11.40;7.38;;;;;;;22.48;56.81;95885.28;4983071;28;20039;-79
2023/07/24 08:02:14;;;;;;;9.90;6.78;;;;;;;22.52;56.87;95896.13;4983274;28;20063;-78
2023/07/24 08:04:44;;;;;;;13.73;7.22;;;;;;;22.56;57.37;95889.19;4982836;28;20066;-78
2023/07/24 08:07:12;;;;;;;15.38;7.32;;;;;;;22.60;56.95;95891.03;4982826;28;20038;-78
2023/07/24 08:09:40;;;;;;;10.18;7.18;;;;;;;22.66;57.13;95888.34;4982771;28;20034;-78
2023/07/24 08:12:09;;;;;;;10.75;6.82;;;;;;;22.69;56.83;95899.22;4982901;28;20066;-78
2023/07/24 08:14:37;;;;;;;10.30;6.93;;;;;;;22.75;56.69;95905.31;4982883;28;20039;-78
2023/07/24 08:17:06;;;;;;;9.02;6.70;;;;;;;22.79;56.99;95898.38;4983027;28;20054;-79
2023/07/24 08:19:34;;;;;;;13.50;7.35;;;;;;;22.84;56.68;95898.31;4982805;28;20104;-78
2023/07/24 08:22:05;;;;;;;10.13;6.95;;;;;;;22.88;56.35;95902.03;4983057;28;20066;-78
2023/07/24 08:24:35;;;;;;;12.43;6.65;;;;;;;22.90;56.47;95905.19;4982745;28;20035;-79
2023/07/24 08:27:04;;;;;;;11.55;7.75;;;;;;;22.95;56.04;95907.03;4982784;28;20042;-79
2023/07/24 08:29:33;;;;;;;14.00;8.82;;;;;;;22.98;55.78;95907.28;4982582;28;20086;-78
2023/07/24 08:32:01;;;;;;;11.77;7.95;;;;;;;23.02;55.35;95897.69;4982674;28;20031;-78
2023/07/24 08:34:29;;;;;;;12.32;8.02;;;;;;;23.08;55.29;95897.66;4982621;28;20035;-78
2023/07/24 08:36:57;;;;;;;9.75;6.60;;;;;;;23.16;55.21;95894.41;4982633;28;20052;-78
2023/07/24 08:39:27;;;;;;;12.52;7.53;;;;;;;23.20;54.75;95898.09;4982581;28;20038;-78
2023/07/24 08:41:56;;;;;;;12.18;8.93;;;;;;;23.26;54.72;95880.97;4982358;28;20031;-79
2023/07/24 08:44:30;;;;;;;12.15;8.75;;;;;;;23.34;54.54;95880.38;4982621;28;20090;-79
2023/07/24 08:47:00;;;;;;;11.43;7.30;;;;;;;23.43;54.00;95868.03;4965961;28;20051;-79
2023/07/24 08:49:30;;;;;;;15.88;7.38;;;;;;;23.52;54.08;95859.44;4982253;28;20059;-78
2023/07/24 08:51:59;;;;;;;11.38;7.35;;;;;;;23.59;53.69;95863.38;4982284;28;20035;-78
2023/07/24 08:54:33;;;;;;;11.15;7.50;;;;;;;23.69;52.76;95862.47;4982273;28;20054;-79
2023/07/24 08:57:07;;;;;;;8.05;5.40;;;;;;;23.81;52.25;95854.91;4982208;28;20051;-79
2023/07/24 08:59:35;;;;;;;12.35;7.07;;;;;;;23.96;51.72;95861.13;4981630;28;20074;-79
2023/07/24 09:02:05;;;;;;;8.90;6.25;;;;;;;24.13;50.87;95853.44;4982226;28;20044;-78
2023/07/24 09:04:33;;;;;;;10.77;7.38;;;;;;;24.27;50.07;95856.22;4982359;28;20039;-78
2023/07/24 09:07:01;;;;;;;9.50;7.05;;;;;;;24.41;49.63;95861.59;4982081;28;20090;-79
2023/07/24 09:09:32;;;;;;;9.85;6.95;;;;;;;24.47;48.96;95871.91;4982205;28;20051;-80
2023/07/24 09:12:00;;;;;;;11.43;6.30;;;;;;;24.53;48.46;95869.97;4982020;28;20082;-77
2023/07/24 09:14:30;;;;;;;10.38;6.70;;;;;;;24.66;48.75;95882.63;4981793;28;20063;-79
2023/07/24 09:17:06;;;;;;;9.20;6.80;;;;;;;24.79;47.85;95873.06;4981763;28;20071;-79
2023/07/24 09:19:35;;;;;;;8.63;5.75;;;;;;;24.86;48.25;95868.16;4981636;28;20083;-80
2023/07/24 09:22:11;;;;;;;12.25;6.47;;;;;;;24.91;47.90;95859.28;4981304;28;20031;-80
2023/07/24 09:24:50;;;;;;;11.85;6.63;;;;;;;24.95;48.08;95862.97;4981398;28;20055;-80
2023/07/24 09:27:18;;;;;;;7.90;5.63;;;;;;;24.99;48.20;95873.81;4981402;28;20066;-80
2023/07/24 09:29:46;;;;;;;8.77;5.50;;;;;;;25.01;48.37;95864.44;4981192;28;20031;-80
2023/07/24 09:32:22;;;;;;;9.02;6.68;;;;;;;25.03;48.08;95856.94;4981019;28;20038;-79
2023/07/24 09:34:51;;;;;;;7.32;5.72;;;;;;;25.00;48.38;95846.88;4980876;28;20046;-80
2023/07/24 09:37:26;;;;;;;10.60;6.60;;;;;;;24.93;48.16;95840.34;4980858;28;20063;-80
2023/07/24 09:39:55;;;;;;;8.88;6.80;;;;;;;24.88;48.64;95851.84;4980773;28;20078;-80
2023/07/24 09:42:31;;;;;;;10.27;6.78;;;;;;;24.83;48.37;95867.94;4980724;28;20035;-80
2023/07/24 09:44:58;;;;;;;8.00;5.72;;;;;;;24.75;48.57;95847.25;4980676;28;20062;-80
2023/07/24 09:47:27;;;;;;;10.57;5.70;;;;;;;24.67;49.18;95838.84;4980574;28;20039;-80
2023/07/24 09:50:14;;;;;;;9.80;6.47;;;;;;;24.59;49.74;95855.50;4980365;28;20049;-80
2023/07/24 09:52:42;;;;;;;9.45;6.45;;;;;;;24.53;49.92;95869.19;4980783;28;20067;-79
2023/07/24 09:55:16;;;;;;;9.20;7.32;;;;;;;24.46;50.02;95848.97;4980567;28;20087;-79
2023/07/24 09:57:45;;;;;;;10.40;6.18;;;;;;;24.37;50.08;95842.72;4980782;28;20095;-80
2023/07/24 10:00:14;;;;;;;9.88;6.68;;;;;;;24.34;50.65;95842.53;4980629;28;20035;-79
2023/07/24 10:02:42;;;;;;;9.30;6.45;;;;;;;24.27;51.29;95835.69;4980686;28;20077;-79
2023/07/24 10:05:11;;;;;;;8.75;6.35;;;;;;;24.23;51.48;95845.31;4980920;28;20043;-79
2023/07/24 10:07:39;;;;;;;10.63;7.50;;;;;;;24.22;51.48;95850.94;4980718;28;20039;-79
2023/07/24 10:10:08;;;;;;;8.05;5.53;;;;;;;24.16;50.71;95855.53;4979939;28;20042;-80
2023/07/24 10:12:38;;;;;;;10.05;6.25;;;;;;;24.09;51.48;95859.63;4980891;28;20035;-79
2023/07/24 10:15:07;;;;;;;9.10;5.47;;;;;;;24.02;52.30;95866.09;4980809;28;20041;-78
2023/07/24 10:17:39;;;;;;;10.07;5.88;;;;;;;23.99;52.18;95881.88;4980880;28;20059;-79
2023/07/24 10:20:09;;;;;;;8.52;4.53;;;;;;;23.96;52.08;95883.22;4981179;28;20035;-79
2023/07/24 10:22:42;;;;;;;8.52;4.65;;;;;;;23.91;51.41;95890.47;4981113;28;20046;-80
2023/07/24 10:25:12;;;;;;;8.40;4.97;;;;;;;23.82;51.67;95901.75;4981031;28;20043;-79
2023/07/24 10:27:46;;;;;;;6.05;4.28;;;;;;;23.73;52.08;95903.44;4981030;28;20047;-79
2023/07/24 10:30:17;;;;;;;7.00;4.78;;;;;;;23.65;52.00;95910.16;4981006;28;20031;-79
2023/07/24 10:33:10;;;;;;;5.63;4.40;;;;;;;23.57;52.22;95904.66;4980832;28;20032;-81
2023/07/24 10:35:43;;;;;;;7.53;3.97;;;;;;;23.50;52.18;95920.16;4980836;28;20055;-79
2023/07/24 10:38:15;;;;;;;5.80;4.85;;;;;;;23.41;52.59;95919.97;4980877;28;20059;-79
2023/07/24 10:40:45;;;;;;;7.00;4.32;;;;;;;23.31;52.77;95920.88;4980600;28;20055;-79
2023/07/24 10:43:20;;;;;;;5.38;3.78;;;;;;;23.23;53.24;95914.28;4964228;28;20032;-79
2023/07/24 10:45:50;;;;;;;7.00;4.78;;;;;;;23.19;53.67;95917.78;4980504;28;20069;-79
2023/07/24 10:48:20;;;;;;;7.28;5.03;;;;;;;23.19;53.28;95923.09;4980558;28;20043;-79
2023/07/24 10:50:50;;;;;;;5.22;4.07;;;;;;;23.20;53.07;95914.84;4980387;28;20051;-79
2023/07/24 10:53:23;;;;;;;7.50;4.93;;;;;;;23.20;53.18;95914.84;4980746;28;20053;-79
2023/07/24 10:55:52;;;;;;;6.30;4.47;;;;;;;23.19;53.28;95923.88;4980290;28;20070;-79
2023/07/24 10:58:26;;;;;;;6.10;5.18;;;;;;;23.19;53.26;95925.75;4980344;28;20043;-79
2023/07/24 11:00:55;;;;;;;9.93;5.85;;;;;;;23.15;52.74;95912.19;4980361;28;20031;-78
2023/07/24 11:03:25;;;;;;;6.88;5.13;;;;;;;23.17;53.17;95914.59;4980629;28;20058;-79
2023/07/24 11:05:54;;;;;;;6.72;5.35;;;;;;;23.17;53.31;95910.06;4980077;28;20035;-79
2023/07/24 11:08:22;;;;;;;6.93;5.75;;;;;;;23.19;53.46;95931.06;4980386;28;20074;-79
2023/07/24 11:10:51;;;;;;;9.80;6.22;;;;;;;23.20;53.59;95941.44;4980254;28;20023;-78
2023/07/24 11:13:23;;;;;;;7.80;5.70;;;;;;;23.21;54.12;95947.56;4980350;28;20059;-79
2023/07/24 11:15:52;;;;;;;5.40;4.88;;;;;;;23.20;54.33;95944.09;4980137;28;20027;-79
2023/07/24 11:18:22;;;;;;;7.55;5.25;;;;;;;23.16;54.45;95966.22;4980215;28;20086;-79
2023/07/24 11:20:51;;;;;;;6.40;4.95;;;;;;;23.07;55.49;95974.00;4979985;28;20058;-79
2023/07/24 11:23:20;;;;;;;8.13;5.85;;;;;;;22.94;55.76;95964.75;4984144;28;20031;-79
2023/07/24 11:25:49;;;;;;;9.63;5.97;;;;;;;22.85;56.75;95961.09;4984210;28;20038;-79
2023/07/24 11:28:16;;;;;;;8.70;6.05;;;;;;;22.77;57.48;95964.31;4984145;28;20041;-79
2023/07/24 11:30:46;;;;;;;8.85;5.75;;;;;;;22.72;57.82;95962.50;4983753;28;20035;-78
2023/07/24 11:33:17;;;;;;;7.00;5.75;;;;;;;22.69;58.21;95967.53;4983720;28;20035;-78
2023/07/24 11:35:47;;;;;;;8.65;5.65;;;;;;;22.65;58.79;95969.94;4983730;28;20031;-79
2023/07/24 11:38:15;;;;;;;8.68;6.07;;;;;;;22.61;59.29;95963.63;4983929;28;20041;-79
2023/07/24 11:40:45;;;;;;;9.55;6.15;;;;;;;22.55;60.39;95962.03;4983696;28;20061;-78
2023/07/24 11:43:18;;;;;;;14.98;7.10;;;;;;;22.48;60.80;95967.66;4983605;28;20033;-79
2023/07/24 11:45:48;;;;;;;9.13;6.90;;;;;;;22.42;61.76;95963.44;4983833;28;20051;-78
2023/07/24 11:48:17;;;;;;;9.40;6.20;;;;;;;22.36;61.76;95951.22;4983540;28;20039;-79
2023/07/24 11:50:49;;;;;;;7.50;6.00;;;;;;;22.27;62.23;95944.91;4983556;28;20035;-79
2023/07/24 11:53:22;;;;;;;9.13;6.05;;;;;;;22.13;64.05;95932.16;4983480;28;20062;-79
2023/07/24 11:55:51;;;;;;;10.07;6.55;;;;;;;22.08;64.05;95912.78;4983564;28;20035;-79
2023/07/24 11:58:20;;;;;;;9.90;6.10;;;;;;;22.01;63.78;95897.94;4983501;28;20086;-79
2023/07/24 12:00:51;;;;;;;10.23;6.00;;;;;;;22.00;63.89;95903.53;4982990;28;20031;-79
2023/07/24 12:03:22;;;;;;;9.60;5.50;;;;;;;22.05;63.97;95894.75;4982964;28;20115;-79
2023/07/24 12:05:50;;;;;;;8.50;5.78;;;;;;;22.08;63.53;95894.97;4983195;28;20031;-79
2023/07/24 12:08:22;;;;;;;9.52;5.50;;;;;;;22.15;63.73;95886.72;4983165;28;20054;-79
2023/07/24 12:10:50;;;;;;;10.48;5.50;;;;;;;22.17;63.53;95858.84;4983336;28;20099;-79
2023/07/24 12:13:18;;;;;;;8.18;5.90;;;;;;;22.16;63.07;95840.50;4983131;28;20061;-81
2023/07/24 12:15:50;;;;;;;8.00;5.68;;;;;;;22.16;63.55;95833.34;4982998;28;20035;-79
2023/07/24 12:18:18;;;;;;;7.07;5.40;;;;;;;22.18;62.52;95817.13;4982880;28;20063;-79
2023/07/24 12:20:47;;;;;;;6.60;5.20;;;;;;;22.19;62.82;95803.59;4982662;28;20039;-79
2023/07/24 12:23:15;;;;;;;9.00;5.60;;;;;;;22.29;63.28;95794.00;4983074;28;20074;-79
2023/07/24 12:25:44;;;;;;;9.00;5.32;;;;;;;22.38;63.08;95779.03;4982727;28;20059;-79
2023/07/24 12:28:12;;;;;;;8.10;5.65;;;;;;;22.53;62.12;95768.28;4982746;28;20073;-78
2023/07/24 12:30:40;;;;;;;8.73;5.85;;;;;;;22.69;62.40;95781.47;4982900;28;20063;-79
2023/07/24 12:33:09;;;;;;;7.90;5.25;;;;;;;22.86;61.42;95787.16;4981571;28;20550;-79
2023/07/24 12:35:37;;;;;;;7.97;5.50;;;;;;;22.97;60.72;95799.28;4982736;28;20054;-79
2023/07/24 12:38:05;;;;;;;6.68;4.88;;;;;;;23.06;59.96;95812.00;4982646;28;20605;-79
2023/07/24 12:40:33;;;;;;;17.75;6.40;;;;;;;23.10;59.89;95824.47;4982748;28;20058;-79
2023/07/24 12:43:01;;;;;;;6.80;5.00;;;;;;;23.15;60.38;95818.31;4982112;28;20039;-79
2023/07/24 12:45:29;;;;;;;8.20;5.80;;;;;;;23.20;60.02;95818.28;4982603;28;20042;-79
2023/07/24 12:47:57;;;;;;;6.97;5.30;;;;;;;23.24;60.21;95819.28;4982484;28;20035;-79
2023/07/24 12:50:27;;;;;;;6.75;4.68;;;;;;;23.28;57.77;95830.94;4982440;28;20035;-79
2023/07/24 12:52:55;;;;;;;9.40;5.35;;;;;;;23.30;58.05;95836.00;4982510;28;20042;-79
2023/07/24 12:55:23;;;;;;;6.35;5.00;;;;;;;23.35;57.24;95830.59;4982494;28;20047;-79
2023/07/24 12:57:51;;;;;;;7.22;5.30;;;;;;;23.41;57.33;95821.50;4982432;28;20039;-79
2023/07/24 13:00:18;;;;;;;5.93;5.28;;;;;;;23.50;56.77;95813.69;4982577;28;20031;-79
2023/07/24 13:02:46;;;;;;;7.40;5.22;;;;;;;23.60;56.65;95810.94;4982391;28;20058;-79
2023/07/24 13:05:14;;;;;;;8.43;4.63;;;;;;;23.68;56.11;95809.50;4982308;28;20027;-79
2023/07/24 13:07:46;;;;;;;5.22;4.43;;;;;;;23.73;56.56;95804.13;4982212;28;20046;-79
2023/07/24 13:10:14;;;;;;;5.00;3.78;;;;;;;23.75;56.58;95823.28;4982265;28;20051;-79
2023/07/24 13:12:41;;;;;;;8.05;5.40;;;;;;;23.76;56.24;95809.69;4982324;28;20031;-79
2023/07/24 13:15:10;;;;;;;5.13;4.32;;;;;;;23.85;55.85;95810.66;4982158;28;20035;-79
2023/07/24 13:17:38;;;;;;;5.97;4.03;;;;;;;23.93;55.49;95808.44;4981922;28;20055;-78
2023/07/24 13:20:07;;;;;;;6.53;3.83;;;;;;;24.00;55.13;95793.66;4982065;28;20039;-78
2023/07/24 13:22:35;;;;;;;5.25;4.32;;;;;;;24.09;54.41;95796.47;4981793;28;20034;-79
2023/07/24 13:25:06;;;;;;;5.38;3.80;;;;;;;24.17;53.10;95792.38;4982025;28;20043;-79
2023/07/24 13:27:34;;;;;;;4.93;4.10;;;;;;;24.19;51.70;95785.69;4981487;28;20047;-79
2023/07/24 13:30:01;;;;;;;4.00;3.20;;;;;;;24.23;50.74;95786.69;4981538;28;20051;-80
2023/07/24 13:32:30;;;;;;;3.90;3.30;;;;;;;24.28;49.88;95777.81;4981467;28;20047;-79
2023/07/24 13:34:58;;;;;;;5.10;3.55;;;;;;;24.30;49.63;95774.88;4981032;28;20103;-79
2023/07/24 13:37:26;;;;;;;5.32;3.80;;;;;;;24.28;49.77;95769.84;4981156;28;20035;-79
2023/07/24 13:39:54;;;;;;;6.10;4.05;;;;;;;24.31;50.00;95763.13;4981646;28;20047;-80
2023/07/24 13:42:23;;;;;;;4.28;3.47;;;;;;;24.35;50.15;95756.13;4981474;28;20035;-79
2023/07/24 13:44:51;;;;;;;4.65;4.15;;;;;;;24.36;49.73;95768.38;4980870;28;20043;-79
2023/07/24 13:47:20;;;;;;;4.68;3.88;;;;;;;24.38;50.09;95772.34;4981047;28;20047;-79
2023/07/24 13:49:48;;;;;;;3.83;3.40;;;;;;;24.45;50.14;95779.97;4980933;28;20067;-79
2023/07/24 13:52:16;;;;;;;5.22;3.30;;;;;;;24.50;48.63;95766.59;4980822;28;20035;-79
2023/07/24 13:54:44;;;;;;;3.92;3.50;;;;;;;24.51;47.85;95768.19;4980727;28;20047;-79
2023/07/24 13:57:14;;;;;;;6.50;4.00;;;;;;;24.52;47.15;95759.09;4980480;28;20067;-79
2023/07/24 13:59:43;;;;;;;4.60;3.40;;;;;;;24.54;47.39;95754.25;4980545;28;20075;-79
2023/07/24 14:02:12;;;;;;;4.55;3.72;;;;;;;24.56;47.54;95730.00;4980378;28;20035;-79
2023/07/24 14:04:40;;;;;;;4.78;3.80;;;;;;;24.56;47.31;95736.09;4980657;28;20031;-79
2023/07/24 14:07:08;;;;;;;13.32;5.40;;;;;;;24.53;47.52;95731.34;4980357;28;20046;-79
2023/07/24 14:09:35;;;;;;;5.85;3.25;;;;;;;24.52;47.27;95729.00;4980181;28;20063;-79
2023/07/24 14:12:04;;;;;;;3.53;2.85;;;;;;;24.50;47.76;95726.59;4980017;28;20051;-79
2023/07/24 14:14:32;;;;;;;5.45;3.75;;;;;;;24.49;47.68;95714.38;4980277;28;20062;-79
2023/07/24 14:17:01;;;;;;;6.30;3.92;;;;;;;24.48;47.89;95704.78;4980076;28;20035;-79
2023/07/24 14:19:28;;;;;;;4.53;3.10;;;;;;;24.46;47.50;95713.03;4980018;28;20046;-79
2023/07/24 14:21:56;;;;;;;3.95;3.53;;;;;;;24.45;47.61;95700.78;4979588;28;20031;-80
2023/07/24 14:24:24;;;;;;;5.18;4.15;;;;;;;24.46;47.76;95701.59;4979757;28;20043;-79
2023/07/24 14:26:51;;;;;;;6.65;4.70;;;;;;;24.47;47.69;95690.63;4979960;28;20046;-79
2023/07/24 14:29:19;;;;;;;5.95;4.25;;;;;;;24.49;47.60;95708.22;4980141;28;20071;-80
2023/07/24 14:31:47;;;;;;;5.50;3.78;;;;;;;24.49;48.01;95702.91;4979716;28;20062;-79
2023/07/24 14:34:16;;;;;;;5.35;4.53;;;;;;;24.49;47.98;95709.03;4979812;28;20055;-79
2023/07/24 14:36:44;;;;;;;6.05;4.20;;;;;;;24.46;47.99;95704.25;4979916;28;20067;-79
2023/07/24 14:39:11;;;;;;;4.10;3.30;;;;;;;24.43;48.33;95699.50;4979700;28;20043;-79
2023/07/24 14:41:39;;;;;;;4.97;3.78;;;;;;;24.32;48.95;95703.44;4979668;28;20035;-79
2023/07/24 14:44:07;;;;;;;5.97;3.75;;;;;;;24.21;50.36;95708.13;4979757;28;20043;-79
2023/07/24 14:46:34;;;;;;;5.20;3.70;;;;;;;24.10;51.56;95702.16;4980094;28;20039;-79
2023/07/24 14:49:02;;;;;;;4.82;3.92;;;;;;;24.03;53.37;95701.72;4980259;28;20061;-78
2023/07/24 14:51:31;;;;;;;5.55;4.03;;;;;;;24.00;53.98;95691.66;4980351;28;20058;-79
2023/07/24 14:54:00;;;;;;;5.30;3.42;;;;;;;23.95;54.94;95684.53;4980537;28;20034;-79
2023/07/24 14:56:27;;;;;;;6.97;3.88;;;;;;;23.88;55.58;95683.28;4979890;28;20039;-78
2023/07/24 14:59:06;;;;;;;10.27;4.15;;;;;;;23.77;55.94;95686.13;4980225;28;20039;-79
2023/07/24 15:01:34;;;;;;;6.38;3.42;;;;;;;23.63;56.06;95683.34;4980046;28;20047;-79
2023/07/24 15:04:02;;;;;;;6.72;4.20;;;;;;;23.54;56.77;95685.06;4980319;28;20031;-79
2023/07/24 15:06:32;;;;;;;6.60;4.82;;;;;;;23.51;56.74;95684.88;4980187;28;20107;-79
2023/07/24 15:09:00;;;;;;;5.72;4.47;;;;;;;23.51;57.18;95684.88;4980418;28;20063;-79
2023/07/24 15:11:28;;;;;;;5.13;3.90;;;;;;;23.50;57.17;95693.91;4980132;28;20031;-79
2023/07/24 15:13:56;;;;;;;5.50;3.42;;;;;;;23.40;57.71;95690.31;4980052;28;20070;-78
2023/07/24 15:16:24;;;;;;;5.32;3.50;;;;;;;23.33;58.22;95695.19;4979953;28;20047;-79
2023/07/24 15:18:52;;;;;;;4.93;3.55;;;;;;;23.30;58.27;95685.09;4979717;28;20039;-79
2023/07/24 15:21:20;;;;;;;5.25;3.67;;;;;;;23.30;58.49;95685.09;4979902;28;20103;-79
2023/07/24 15:23:51;;;;;;;4.75;4.00;;;;;;;23.29;58.60;95694.19;4980267;28;20038;-79
2023/07/24 15:48:40;;;;;;;8.02;4.20;;;;;;;22.93;58.72;95723.00;5004053;23;19912;-79
2023/07/24 16:09:35;;;;;;;4.90;3.65;;;;;;;22.70;58.07;95717.38;4982885;28;20027;-78
2023/07/24 16:12:52;;;;;;;3.72;3.33;;;;;;;22.67;57.62;95703.84;4981551;28;20328;-79
2023/07/24 16:15:22;;;;;;;4.10;3.22;;;;;;;22.65;57.58;95684.72;4982959;28;20042;-79